Time;durP1;ratioP1;P1;durP2;ratioP2;P2;SDS_P1;SDS_P2;PMS_P1;PMS_P2;Temp;Humidity;BMP_temperature;BMP_pressure;BME280_temperature;BME280_humidity;BME280_pressure;Samples;Min_cycle;Max_cycle;Signal;HPM_P1;HPM_P2
2023/03/29 00:01:17;;;;;;;18.00;7.70;;;;;;;;;;5001060;28;20022;-74
2023/03/29 00:03:44;;;;;;;17.33;7.73;;;;;;;;;;4992166;28;20498;-75
2023/03/29 00:06:13;;;;;;;22.53;8.17;;;;;;;;;;4992642;28;20125;-75
2023/03/29 00:08:40;;;;;;;21.77;7.67;;;;;;;;;;4992740;28;20030;-75
2023/03/29 00:11:06;;;;;;;18.20;7.60;;;;;;;;;;4992461;28;20073;-75
2023/03/29 00:13:32;;;;;;;18.87;8.40;;;;;;;;;;4992733;28;20105;-75
2023/03/29 00:15:57;;;;;;;20.20;7.30;;;;;;;;;;4990903;28;20687;-74
2023/03/29 00:18:23;;;;;;;29.50;8.60;;;;;;;;;;4992237;28;20070;-73
2023/03/29 00:20:58;;;;;;;15.63;8.97;;;;;;;;;;4990997;28;20145;-74
2023/03/29 00:23:25;;;;;;;17.07;8.50;;;;;;;;;;4992124;28;20034;-75
2023/03/29 00:25:54;;;;;;;15.80;6.97;;;;;;;;;;4991865;28;20030;-74
2023/03/29 00:28:20;;;;;;;21.80;6.87;;;;;;;;;;4991891;28;20050;-74
2023/03/29 00:30:46;;;;;;;16.67;8.10;;;;;;;;;;4991032;28;20080;-74
2023/03/29 00:33:13;;;;;;;20.07;8.50;;;;;;;;;;4990441;28;20466;-74
2023/03/29 00:35:39;;;;;;;15.63;7.73;;;;;;;;;;4991861;28;20061;-74
2023/03/29 00:38:05;;;;;;;20.27;8.23;;;;;;;;;;4990872;28;20412;-75
2023/03/29 00:40:32;;;;;;;16.43;6.93;;;;;;;;;;4976429;28;20032;-74
2023/03/29 00:42:59;;;;;;;23.20;8.40;;;;;;;;;;4971383;28;20085;-74
2023/03/29 00:45:29;;;;;;;22.27;8.60;;;;;;;;;;4971027;28;20483;-74
2023/03/29 00:47:58;;;;;;;21.40;7.63;;;;;;;;;;4971771;28;20026;-74
2023/03/29 00:50:47;;;;;;;18.43;7.47;;;;;;;;;;4972989;28;20023;-73
2023/03/29 00:53:47;;;;;;;18.30;8.17;;;;;;;;;;4973760;28;20019;-75
2023/03/29 00:56:20;;;;;;;19.23;7.33;;;;;;;;;;4974650;28;20034;-73
2023/03/29 00:59:01;;;;;;;19.47;7.00;;;;;;;;;;4973513;28;20058;-74
2023/03/29 01:01:36;;;;;;;21.47;8.13;;;;;;;;;;4971189;28;20129;-74
2023/03/29 01:04:31;;;;;;;17.73;7.73;;;;;;;;;;4970987;28;20022;-74
2023/03/29 01:07:16;;;;;;;16.00;6.47;;;;;;;;;;4935375;28;20031;-75
2023/03/29 01:09:47;;;;;;;16.27;8.27;;;;;;;;;;4982519;28;20478;-74
2023/03/29 01:12:18;;;;;;;17.27;7.20;;;;;;;;;;5005873;28;20085;-75
2023/03/29 01:14:50;;;;;;;14.60;7.70;;;;;;;;;;4989804;28;20022;-75
2023/03/29 01:17:20;;;;;;;18.60;7.50;;;;;;;;;;5006067;28;20755;-75
2023/03/29 01:19:56;;;;;;;21.60;7.93;;;;;;;;;;5006688;28;20054;-75
2023/03/29 01:22:38;;;;;;;18.17;7.47;;;;;;;;;;5006651;28;20022;-73
2023/03/29 01:25:25;;;;;;;19.33;7.40;;;;;;;;;;4989699;28;20034;-74
2023/03/29 01:28:02;;;;;;;14.87;6.80;;;;;;;;;;4991159;28;20023;-73
2023/03/29 01:30:48;;;;;;;18.10;6.70;;;;;;;;;;5006662;28;20030;-75
2023/03/29 01:33:45;;;;;;;18.77;7.03;;;;;;;;;;4991052;28;20098;-74
2023/03/29 01:36:39;;;;;;;14.83;6.80;;;;;;;;;;4986813;28;20050;-73
2023/03/29 01:39:06;;;;;;;15.93;7.03;;;;;;;;;;4991281;28;20113;-74
2023/03/29 01:41:38;;;;;;;15.37;7.40;;;;;;;;;;4990081;28;20049;-74
2023/03/29 01:44:55;;;;;;;21.27;8.17;;;;;;;;;;4991272;28;20029;-74
2023/03/29 01:47:31;;;;;;;18.93;7.47;;;;;;;;;;4970817;28;20045;-73
2023/03/29 01:50:08;;;;;;;23.50;7.63;;;;;;;;;;4954784;28;20057;-74
2023/03/29 01:52:39;;;;;;;17.63;7.00;;;;;;;;;;4986035;28;20611;-73
2023/03/29 01:55:13;;;;;;;15.97;6.80;;;;;;;;;;4993120;28;20030;-74
2023/03/29 01:57:41;;;;;;;15.93;6.37;;;;;;;;;;4993879;28;20426;-73
2023/03/29 02:00:13;;;;;;;19.13;7.37;;;;;;;;;;4989267;28;20058;-73
2023/03/29 02:02:42;;;;;;;16.52;6.63;;;;;;;;;;4989193;28;20022;-74
2023/03/29 02:05:09;;;;;;;17.57;6.73;;;;;;;;;;4989294;28;20031;-74
2023/03/29 02:07:37;;;;;;;20.53;6.60;;;;;;;;;;4989201;28;20184;-75
2023/03/29 02:10:05;;;;;;;16.23;6.57;;;;;;;;;;4989638;28;20037;-74
2023/03/29 02:12:31;;;;;;;11.87;5.80;;;;;;;;;;4990043;28;20031;-74
2023/03/29 02:14:57;;;;;;;16.40;5.67;;;;;;;;;;4990777;28;20454;-74
2023/03/29 02:17:26;;;;;;;16.33;6.97;;;;;;;;;;4988753;28;20033;-74
2023/03/29 02:19:59;;;;;;;15.13;5.87;;;;;;;;;;4989966;28;20529;-72
2023/03/29 02:22:36;;;;;;;15.00;6.53;;;;;;;;;;4988752;28;20048;-73
2023/03/29 02:25:03;;;;;;;20.80;6.83;;;;;;;;;;4989848;28;20073;-73
2023/03/29 02:27:29;;;;;;;17.67;6.73;;;;;;;;;;4988920;28;20026;-74
2023/03/29 02:29:55;;;;;;;18.13;6.37;;;;;;;;;;4988658;28;20383;-74
2023/03/29 02:32:48;;;;;;;17.53;6.90;;;;;;;;;;4988529;28;20030;-74
2023/03/29 02:35:20;;;;;;;17.87;7.07;;;;;;;;;;4990111;28;20050;-73
2023/03/29 02:37:50;;;;;;;15.03;7.23;;;;;;;;;;4990146;28;20109;-74
2023/03/29 02:40:16;;;;;;;13.43;6.47;;;;;;;;;;4976467;28;20118;-74
2023/03/29 02:42:44;;;;;;;18.40;6.87;;;;;;;;;;4969275;28;20103;-74
2023/03/29 02:45:13;;;;;;;15.20;6.33;;;;;;;;;;4969144;28;20476;-73
2023/03/29 02:47:44;;;;;;;14.13;6.47;;;;;;;;;;4973232;28;20105;-72
2023/03/29 02:50:10;;;;;;;12.30;5.47;;;;;;;;;;4990273;28;20465;-73
2023/03/29 02:52:39;;;;;;;16.77;5.37;;;;;;;;;;4989015;28;20084;-74
2023/03/29 02:55:10;;;;;;;11.60;5.13;;;;;;;;;;4991963;28;20030;-74
2023/03/29 02:57:38;;;;;;;10.97;5.30;;;;;;;;;;4992093;28;20030;-74
2023/03/29 03:00:08;;;;;;;18.57;6.07;;;;;;;;;;4993735;28;20027;-75
2023/03/29 03:02:34;;;;;;;15.67;6.03;;;;;;;;;;4993471;28;20048;-74
2023/03/29 03:04:59;;;;;;;15.17;6.90;;;;;;;;;;4991903;28;20097;-75
2023/03/29 03:07:27;;;;;;;16.03;6.33;;;;;;;;;;4992269;28;20060;-74
2023/03/29 03:09:53;;;;;;;14.20;5.63;;;;;;;;;;4992139;28;20031;-73
2023/03/29 03:12:18;;;;;;;18.90;6.97;;;;;;;;;;4992264;28;20525;-74
2023/03/29 03:14:44;;;;;;;15.87;6.77;;;;;;;;;;4992168;28;20030;-74
2023/03/29 03:17:09;;;;;;;14.10;6.33;;;;;;;;;;4991363;28;20355;-75
2023/03/29 03:19:35;;;;;;;19.17;6.37;;;;;;;;;;4984279;28;20169;-74
2023/03/29 03:22:01;;;;;;;17.23;7.00;;;;;;;;;;4973514;28;20035;-74
2023/03/29 03:24:27;;;;;;;13.70;6.63;;;;;;;;;;4972127;28;20033;-74
2023/03/29 03:26:53;;;;;;;21.37;6.87;;;;;;;;;;4973502;28;20038;-75
2023/03/29 03:29:18;;;;;;;19.00;7.93;;;;;;;;;;4974051;28;20026;-75
2023/03/29 03:31:44;;;;;;;16.50;6.57;;;;;;;;;;4973683;28;20106;-73
2023/03/29 03:34:10;;;;;;;15.07;6.23;;;;;;;;;;4973282;28;20035;-74
2023/03/29 03:36:36;;;;;;;21.30;6.30;;;;;;;;;;4973637;28;20475;-73
2023/03/29 03:39:05;;;;;;;14.47;6.73;;;;;;;;;;4990054;28;20023;-74
2023/03/29 03:41:31;;;;;;;19.13;6.27;;;;;;;;;;4992947;28;20447;-75
2023/03/29 03:43:57;;;;;;;19.87;7.20;;;;;;;;;;4992622;28;20031;-74
2023/03/29 03:46:23;;;;;;;17.80;6.73;;;;;;;;;;4991464;28;20112;-74
2023/03/29 03:48:48;;;;;;;12.97;5.93;;;;;;;;;;4992487;28;20026;-74
2023/03/29 03:51:14;;;;;;;16.17;5.90;;;;;;;;;;4995024;28;20467;-74
2023/03/29 03:53:39;;;;;;;14.83;6.03;;;;;;;;;;4994661;28;20121;-74
2023/03/29 03:56:07;;;;;;;12.53;5.80;;;;;;;;;;4993964;28;20053;-74
2023/03/29 03:58:34;;;;;;;17.67;5.43;;;;;;;;;;4991773;28;20037;-74
2023/03/29 04:01:00;;;;;;;13.03;6.03;;;;;;;;;;4991423;28;20044;-74
2023/03/29 04:03:25;;;;;;;18.27;7.53;;;;;;;;;;4991216;28;20402;-74
2023/03/29 04:05:51;;;;;;;19.57;5.23;;;;;;;;;;4992634;28;20030;-74
2023/03/29 04:08:17;;;;;;;16.03;6.43;;;;;;;;;;4991524;28;20034;-74
2023/03/29 04:10:54;;;;;;;13.53;5.37;;;;;;;;;;4991235;28;20061;-75
2023/03/29 04:13:20;;;;;;;17.43;5.33;;;;;;;;;;4990528;28;20478;-75
2023/03/29 04:15:48;;;;;;;15.30;5.87;;;;;;;;;;4990864;28;20030;-75
2023/03/29 04:18:14;;;;;;;15.00;5.67;;;;;;;;;;4990752;28;20034;-75
2023/03/29 04:20:40;;;;;;;19.10;5.37;;;;;;;;;;4992293;28;20085;-74
2023/03/29 04:23:06;;;;;;;13.37;5.90;;;;;;;;;;4992129;28;20054;-74
2023/03/29 04:25:32;;;;;;;9.30;5.67;;;;;;;;;;4990731;28;20371;-75
2023/03/29 04:27:57;;;;;;;16.63;6.30;;;;;;;;;;4990814;28;20662;-75
2023/03/29 04:30:23;;;;;;;13.20;4.50;;;;;;;;;;5007215;28;20084;-74
2023/03/29 04:32:48;;;;;;;9.40;4.80;;;;;;;;;;4991935;28;20084;-74
2023/03/29 04:35:14;;;;;;;11.03;4.97;;;;;;;;;;4991818;28;20142;-76
2023/03/29 04:37:40;;;;;;;17.73;6.17;;;;;;;;;;4992883;28;20443;-75
2023/03/29 04:40:13;;;;;;;11.77;4.43;;;;;;;;;;4980352;28;20062;-73
2023/03/29 04:42:43;;;;;;;12.70;4.00;;;;;;;;;;4971993;28;20037;-76
2023/03/29 04:45:12;;;;;;;13.63;5.73;;;;;;;;;;4971516;28;20038;-74
2023/03/29 04:47:38;;;;;;;11.20;4.17;;;;;;;;;;4971514;28;20038;-74
2023/03/29 04:50:06;;;;;;;9.53;4.40;;;;;;;;;;4973964;28;20030;-74
2023/03/29 04:52:32;;;;;;;19.30;5.53;;;;;;;;;;4974179;28;20039;-74
2023/03/29 04:55:01;;;;;;;15.87;4.73;;;;;;;;;;4975696;28;20034;-75
2023/03/29 04:57:28;;;;;;;9.63;4.40;;;;;;;;;;4975551;28;20041;-74
2023/03/29 04:59:53;;;;;;;16.17;5.47;;;;;;;;;;4974134;28;20105;-75
2023/03/29 05:02:19;;;;;;;13.10;4.63;;;;;;;;;;4958150;28;20035;-74
2023/03/29 05:04:44;;;;;;;14.67;5.87;;;;;;;;;;4973334;28;20097;-74
2023/03/29 05:07:11;;;;;;;10.30;4.27;;;;;;;;;;4972760;28;20323;-74
2023/03/29 05:09:37;;;;;;;11.90;5.07;;;;;;;;;;4971249;28;20435;-73
2023/03/29 05:12:04;;;;;;;10.13;4.87;;;;;;;;;;4972189;28;20126;-74
2023/03/29 05:14:29;;;;;;;9.63;4.10;;;;;;;;;;4972197;28;20496;-74
2023/03/29 05:16:55;;;;;;;9.37;3.90;;;;;;;;;;4971251;28;20142;-74
2023/03/29 05:19:20;;;;;;;13.67;4.47;;;;;;;;;;4969490;28;20070;-75
2023/03/29 05:21:49;;;;;;;12.70;5.37;;;;;;;;;;4984634;28;20439;-75
2023/03/29 05:24:16;;;;;;;11.17;5.03;;;;;;;;;;4988301;28;20469;-73
2023/03/29 05:26:41;;;;;;;22.30;6.10;;;;;;;;;;4983035;28;20038;-74
2023/03/29 05:29:07;;;;;;;12.73;4.63;;;;;;;;;;4985725;28;20459;-74
2023/03/29 05:31:34;;;;;;;15.43;6.50;;;;;;;;;;4989854;28;20669;-75
2023/03/29 05:33:59;;;;;;;11.37;4.40;;;;;;;;;;4988243;28;20129;-74
2023/03/29 05:36:27;;;;;;;16.80;5.00;;;;;;;;;;4991247;28;20209;-76
2023/03/29 05:38:52;;;;;;;12.63;4.53;;;;;;;;;;4987340;28;20026;-76
2023/03/29 05:41:18;;;;;;;22.80;5.47;;;;;;;;;;4986540;28;20036;-75
2023/03/29 05:43:43;;;;;;;9.17;4.23;;;;;;;;;;4985134;28;20454;-76
2023/03/29 05:46:11;;;;;;;8.77;4.57;;;;;;;;;;4993986;28;20034;-74
2023/03/29 05:48:39;;;;;;;11.47;4.57;;;;;;;;;;4972565;28;20050;-73
2023/03/29 05:51:05;;;;;;;10.57;4.00;;;;;;;;;;4989412;28;20052;-71
2023/03/29 05:53:34;;;;;;;16.40;7.97;;;;;;;;;;4988755;28;20546;-73
2023/03/29 05:55:59;;;;;;;14.47;5.23;;;;;;;;;;4987422;28;20181;-74
2023/03/29 05:58:27;;;;;;;10.07;5.70;;;;;;;;;;4971689;28;20683;-74
2023/03/29 06:00:53;;;;;;;11.83;5.03;;;;;;;;;;4975806;28;20415;-73
2023/03/29 06:03:22;;;;;;;9.50;3.93;;;;;;;;;;4976007;28;20468;-72
2023/03/29 06:05:59;;;;;;;12.87;3.87;;;;;;;;;;4988098;28;20022;-76
2023/03/29 06:08:26;;;;;;;19.87;5.07;;;;;;;;;;4979104;28;20452;-73
2023/03/29 06:11:07;;;;;;;9.70;3.70;;;;;;;;;;4973156;28;20432;-76
2023/03/29 06:13:33;;;;;;;10.00;4.00;;;;;;;;;;4978472;28;20034;-74
2023/03/29 06:16:00;;;;;;;8.10;3.53;;;;;;;;;;4976572;28;20049;-76
2023/03/29 06:18:26;;;;;;;26.07;11.67;;;;;;;;;;4984532;28;20034;-74
2023/03/29 06:20:53;;;;;;;10.77;4.07;;;;;;;;;;4973966;28;20046;-74
2023/03/29 06:23:20;;;;;;;4.43;2.77;;;;;;;;;;4984485;28;20122;-74
2023/03/29 06:25:46;;;;;;;7.20;3.33;;;;;;;;;;4980558;28;20621;-74
2023/03/29 06:28:13;;;;;;;19.77;3.97;;;;;;;;;;4987587;28;20034;-74
2023/03/29 06:30:40;;;;;;;16.43;4.17;;;;;;;;;;4977413;28;20030;-76
2023/03/29 06:33:07;;;;;;;12.07;3.50;;;;;;;;;;4977748;28;20460;-74
2023/03/29 06:35:34;;;;;;;6.87;3.47;;;;;;;;;;4991688;28;20026;-72
2023/03/29 06:38:00;;;;;;;5.17;3.10;;;;;;;;;;4985409;28;20699;-74
2023/03/29 06:40:29;;;;;;;9.90;3.60;;;;;;;;;;4988002;28;20083;-73
2023/03/29 06:42:59;;;;;;;13.93;3.63;;;;;;;;;;4979949;28;20041;-73
2023/03/29 06:45:31;;;;;;;11.53;3.80;;;;;;;;;;4985493;28;20030;-72
2023/03/29 06:47:57;;;;;;;10.23;3.28;;;;;;;;;;4987621;28;20038;-73
2023/03/29 06:50:22;;;;;;;9.27;3.03;;;;;;;;;;4987751;28;20038;-72
2023/03/29 06:52:48;;;;;;;13.27;3.60;;;;;;;;;;4987029;28;20084;-73
2023/03/29 06:55:15;;;;;;;8.33;1.97;;;;;;;;;;4989056;28;20382;-73
2023/03/29 06:57:41;;;;;;;11.67;3.27;;;;;;;;;;4990097;28;20463;-73
2023/03/29 07:00:14;;;;;;;30.93;12.47;;;;;;;;;;4989903;28;20019;-73
2023/03/29 07:02:42;;;;;;;11.73;3.80;;;;;;;;;;4987243;28;20109;-74
2023/03/29 07:05:12;;;;;;;15.27;4.03;;;;;;;;;;4986774;28;20077;-71
2023/03/29 07:07:56;;;;;;;9.73;3.43;;;;;;;;;;4979521;28;20073;-73
2023/03/29 07:10:24;;;;;;;5.57;3.27;;;;;;;;;;4987991;28;20037;-71
2023/03/29 07:12:51;;;;;;;6.03;3.20;;;;;;;;;;4987165;28;20129;-74
2023/03/29 07:15:20;;;;;;;14.00;6.03;;;;;;;;;;4983639;28;20128;-75
2023/03/29 07:17:51;;;;;;;14.50;4.77;;;;;;;;;;4988374;28;20490;-74
2023/03/29 07:20:16;;;;;;;7.27;3.40;;;;;;;;;;4994681;28;20046;-76
2023/03/29 07:22:43;;;;;;;30.07;7.23;;;;;;;;;;4991374;28;20419;-74
2023/03/29 07:25:11;;;;;;;10.23;4.03;;;;;;;;;;4992528;28;20347;-74
2023/03/29 07:27:38;;;;;;;6.97;3.67;;;;;;;;;;4978680;28;20545;-75
2023/03/29 07:30:09;;;;;;;10.07;2.87;;;;;;;;;;4988565;28;20022;-73
2023/03/29 07:32:39;;;;;;;9.83;4.40;;;;;;;;;;4987366;28;20347;-70
2023/03/29 07:35:06;;;;;;;7.47;3.63;;;;;;;;;;4961977;28;20026;-74
2023/03/29 07:37:36;;;;;;;6.63;3.10;;;;;;;;;;4982736;28;20049;-78
2023/03/29 07:40:08;;;;;;;15.20;3.77;;;;;;;;;;4983047;28;20034;-75
2023/03/29 07:42:36;;;;;;;12.87;3.53;;;;;;;;;;4982470;28;20034;-74
2023/03/29 07:45:03;;;;;;;11.47;4.37;;;;;;;;;;4987312;28;20029;-75
2023/03/29 07:47:29;;;;;;;7.47;3.97;;;;;;;;;;4993134;28;20022;-75
2023/03/29 07:50:00;;;;;;;8.97;3.73;;;;;;;;;;4993829;28;20049;-73
2023/03/29 07:52:29;;;;;;;14.10;3.70;;;;;;;;;;4993922;28;20023;-71
2023/03/29 07:54:56;;;;;;;7.17;3.20;;;;;;;;;;4991909;28;20038;-72
2023/03/29 07:57:23;;;;;;;14.03;3.73;;;;;;;;;;4987032;28;20030;-72
2023/03/29 07:59:49;;;;;;;8.60;3.33;;;;;;;;;;4989283;28;20069;-73
2023/03/29 08:02:14;;;;;;;12.63;3.27;;;;;;;;;;4981097;28;20396;-73
2023/03/29 08:04:40;;;;;;;8.20;3.60;;;;;;;;;;4985596;28;20438;-73
2023/03/29 08:07:14;;;;;;;8.80;3.13;;;;;;;;;;4980936;28;20317;-74
2023/03/29 08:09:42;;;;;;;24.47;5.07;;;;;;;;;;4998061;28;20034;-77
2023/03/29 08:12:08;;;;;;;17.33;5.33;;;;;;;;;;4988069;28;20374;-76
2023/03/29 08:14:33;;;;;;;19.13;5.67;;;;;;;;;;4988865;28;20034;-73
2023/03/29 08:16:59;;;;;;;15.80;5.83;;;;;;;;;;4985790;28;20468;-74
2023/03/29 08:19:25;;;;;;;14.17;4.73;;;;;;;;;;4977833;28;20533;-75
2023/03/29 08:21:52;;;;;;;12.73;6.63;;;;;;;;;;4976208;28;20129;-76
2023/03/29 08:24:18;;;;;;;9.73;4.00;;;;;;;;;;4979417;28;20088;-74
2023/03/29 08:26:45;;;;;;;7.07;3.40;;;;;;;;;;4976743;28;20089;-77
2023/03/29 08:29:11;;;;;;;12.80;4.80;;;;;;;;;;4981159;28;20088;-72
2023/03/29 08:31:37;;;;;;;6.03;3.63;;;;;;;;;;4982671;28;20030;-73
2023/03/29 08:34:03;;;;;;;13.97;4.70;;;;;;;;;;4980820;28;20041;-75
2023/03/29 08:36:28;;;;;;;12.87;3.73;;;;;;;;;;4985896;28;20667;-76
2023/03/29 08:38:54;;;;;;;13.63;4.10;;;;;;;;;;4987994;28;20454;-74
2023/03/29 08:41:47;;;;;;;9.57;3.70;;;;;;;;;;4978317;28;20026;-74
2023/03/29 08:44:40;;;;;;;9.43;3.60;;;;;;;;;;4983243;28;20106;-73
2023/03/29 08:47:27;;;;;;;11.10;4.07;;;;;;;;;;4983714;28;20026;-76
2023/03/29 08:49:57;;;;;;;10.47;4.00;;;;;;;;;;4986260;28;20062;-76
2023/03/29 08:52:41;;;;;;;7.68;3.55;;;;;;;;;;4988889;28;20376;-74
2023/03/29 08:55:30;;;;;;;10.73;4.22;;;;;;;;;;4985872;28;20471;-73
2023/03/29 08:57:58;;;;;;;17.90;5.93;;;;;;;;;;4983424;28;20077;-74
2023/03/29 09:00:42;;;;;;;6.07;3.63;;;;;;;;;;4982845;28;20061;-74
2023/03/29 09:03:30;;;;;;;11.93;3.67;;;;;;;;;;4984989;28;20030;-75
2023/03/29 09:06:03;;;;;;;8.27;3.77;;;;;;;;;;4985066;28;20077;-74
2023/03/29 09:08:29;;;;;;;8.67;3.50;;;;;;;;;;4999468;28;20057;-75
2023/03/29 09:11:06;;;;;;;7.60;2.73;;;;;;;;;;4981853;28;20474;-76
2023/03/29 09:13:49;;;;;;;5.60;3.37;;;;;;;;;;4981674;28;20042;-74
2023/03/29 09:16:33;;;;;;;6.77;2.80;;;;;;;;;;4986130;28;20292;-77
2023/03/29 09:19:26;;;;;;;7.07;2.73;;;;;;;;;;4987670;28;20034;-76
2023/03/29 09:22:12;;;;;;;8.20;3.60;;;;;;;;;;4977971;28;20136;-72
2023/03/29 09:24:57;;;;;;;5.13;3.40;;;;;;;;;;4976382;28;20124;-74
2023/03/29 09:27:36;;;;;;;8.47;3.20;;;;;;;;;;4980609;28;20050;-74
2023/03/29 09:30:28;;;;;;;5.53;2.97;;;;;;;;;;4977343;28;20490;-75
2023/03/29 09:33:04;;;;;;;7.25;3.92;;;;;;;;;;4979635;28;20116;-73
2023/03/29 09:35:36;;;;;;;6.37;3.03;;;;;;;;;;4978567;28;20506;-76
2023/03/29 09:38:04;;;;;;;7.88;3.20;;;;;;;;;;4962498;28;20052;-73
2023/03/29 09:40:34;;;;;;;8.63;3.17;;;;;;;;;;4980534;28;20121;-74
2023/03/29 09:43:03;;;;;;;8.83;3.13;;;;;;;;;;4982561;28;20033;-74
2023/03/29 09:45:29;;;;;;;7.10;3.03;;;;;;;;;;4986581;28;20033;-73
2023/03/29 09:48:06;;;;;;;7.60;3.30;;;;;;;;;;4981465;28;20034;-75
2023/03/29 09:50:35;;;;;;;8.73;2.80;;;;;;;;;;4986783;28;20034;-75
2023/03/29 09:53:02;;;;;;;8.97;3.20;;;;;;;;;;4946386;29;20050;-74
2023/03/29 09:55:31;;;;;;;8.87;2.50;;;;;;;;;;4930473;29;20429;-75
2023/03/29 09:58:24;;;;;;;12.43;5.13;;;;;;;;;;4943665;28;20042;-74
2023/03/29 10:00:49;;;;;;;5.67;2.93;;;;;;;;;;4930307;29;20035;-72
2023/03/29 10:03:24;;;;;;;3.87;2.40;;;;;;;;;;4922863;28;20031;-75
2023/03/29 10:05:53;;;;;;;6.70;2.47;;;;;;;;;;4921380;29;20157;-77
2023/03/29 10:08:26;;;;;;;5.93;2.50;;;;;;;;;;4924928;29;20225;-75
2023/03/29 10:10:51;;;;;;;8.13;2.50;;;;;;;;;;4928943;29;20042;-73
2023/03/29 10:13:26;;;;;;;5.93;3.10;;;;;;;;;;4929666;29;20035;-73
2023/03/29 10:16:07;;;;;;;7.47;2.40;;;;;;;;;;4926514;28;20166;-75
2023/03/29 10:18:39;;;;;;;5.93;3.13;;;;;;;;;;4944793;29;20399;-72
2023/03/29 10:21:06;;;;;;;12.70;3.10;;;;;;;;;;4924980;29;20254;-74
2023/03/29 10:23:33;;;;;;;13.57;3.20;;;;;;;;;;4940756;28;20035;-73
2023/03/29 10:26:04;;;;;;;37.40;10.57;;;;;;;;;;4983990;28;20030;-74
2023/03/29 10:28:31;;;;;;;12.50;3.78;;;;;;;;;;4982659;28;20050;-76
2023/03/29 10:30:59;;;;;;;6.43;2.90;;;;;;;;;;4982198;28;20390;-73
2023/03/29 10:33:33;;;;;;;3.23;2.30;;;;;;;;;;4983556;28;20049;-73
2023/03/29 10:36:01;;;;;;;4.63;2.60;;;;;;;;;;4982894;28;20085;-73
2023/03/29 10:38:29;;;;;;;16.77;3.43;;;;;;;;;;4980878;28;20029;-73
2023/03/29 10:41:03;;;;;;;4.90;3.20;;;;;;;;;;4977037;28;20034;-73
2023/03/29 10:43:38;;;;;;;11.63;3.40;;;;;;;;;;4981973;28;20044;-75
2023/03/29 10:46:18;;;;;;;7.60;2.70;;;;;;;;;;4981456;28;20388;-76
2023/03/29 10:48:54;;;;;;;11.47;2.70;;;;;;;;;;4981166;28;20039;-75
2023/03/29 10:51:22;;;;;;;5.27;3.60;;;;;;;;;;4984876;28;20085;-76
2023/03/29 10:53:48;;;;;;;3.83;2.50;;;;;;;;;;4981274;28;20046;-76
2023/03/29 10:56:38;;;;;;;7.37;3.30;;;;;;;;;;4980460;28;20061;-74
2023/03/29 10:59:29;;;;;;;9.73;4.07;;;;;;;;;;4999214;28;20494;-77
2023/03/29 11:02:12;;;;;;;6.50;2.70;;;;;;;;;;4984097;28;20030;-73
2023/03/29 11:04:45;;;;;;;7.83;2.97;;;;;;;;;;4982214;28;20096;-72
2023/03/29 11:07:18;;;;;;;8.40;2.77;;;;;;;;;;4987985;28;20034;-71
2023/03/29 11:10:04;;;;;;;11.47;3.40;;;;;;;;;;4992140;28;20437;-75
2023/03/29 11:12:41;;;;;;;5.33;3.37;;;;;;;;;;4979084;28;20030;-74
2023/03/29 11:15:14;;;;;;;11.33;3.27;;;;;;;;;;4980747;28;20113;-75
2023/03/29 11:18:02;;;;;;;6.10;3.20;;;;;;;;;;4981298;28;20097;-75
2023/03/29 11:20:49;;;;;;;7.88;2.83;;;;;;;;;;4982848;28;20296;-74
2023/03/29 11:23:56;;;;;;;10.87;3.20;;;;;;;;;;4984498;28;20030;-75
2023/03/29 11:26:23;;;;;;;6.73;3.10;;;;;;;;;;4977449;28;20038;-74
2023/03/29 11:29:01;;;;;;;9.73;3.00;;;;;;;;;;4982366;28;20375;-75
2023/03/29 11:31:33;;;;;;;3.65;2.55;;;;;;;;;;4985833;28;20030;-75
2023/03/29 11:34:28;;;;;;;4.20;2.95;;;;;;;;;;4982405;28;20027;-73
2023/03/29 11:37:32;;;;;;;6.65;3.75;;;;;;;;;;4985709;28;20121;-75
2023/03/29 11:40:27;;;;;;;15.43;4.78;;;;;;;;;;4987339;28;20037;-74
2023/03/29 11:42:55;;;;;;;9.88;3.10;;;;;;;;;;4988493;28;20030;-75
2023/03/29 11:45:45;;;;;;;6.20;3.53;;;;;;;;;;4991255;28;20038;-74
2023/03/29 11:48:21;;;;;;;10.05;3.67;;;;;;;;;;4992149;28;20053;-74
2023/03/29 11:50:49;;;;;;;5.65;3.40;;;;;;;;;;4999087;28;20022;-73
2023/03/29 11:53:38;;;;;;;6.53;3.83;;;;;;;;;;5002414;28;20058;-74
2023/03/29 11:56:13;;;;;;;6.38;3.13;;;;;;;;;;4993630;28;20117;-73
2023/03/29 11:58:43;;;;;;;6.53;3.38;;;;;;;;;;4983305;28;20038;-75
2023/03/29 12:01:11;;;;;;;7.80;4.57;;;;;;;;;;4983704;28;20439;-74
2023/03/29 12:03:55;;;;;;;9.20;3.45;;;;;;;;;;4989488;28;20030;-74
2023/03/29 12:06:33;;;;;;;8.55;3.75;;;;;;;;;;4983116;28;20295;-74
2023/03/29 12:09:04;;;;;;;8.43;3.95;;;;;;;;;;4981987;28;20041;-75
2023/03/29 12:11:38;;;;;;;5.80;3.17;;;;;;;;;;4985257;28;20030;-73
2023/03/29 12:14:24;;;;;;;7.35;3.17;;;;;;;;;;4984498;28;20049;-75
2023/03/29 12:17:13;;;;;;;10.98;3.28;;;;;;;;;;4987272;28;20042;-75
2023/03/29 12:19:58;;;;;;;10.68;3.78;;;;;;;;;;4985446;28;20054;-74
2023/03/29 12:22:24;;;;;;;9.10;4.30;;;;;;;;;;4985834;28;20065;-74
2023/03/29 12:24:53;;;;;;;10.57;3.45;;;;;;;;;;4985500;28;20050;-75
2023/03/29 12:27:58;;;;;;;9.57;4.50;;;;;;;;;;4983639;28;20058;-76
2023/03/29 12:31:16;;;;;;;6.53;3.40;;;;;;;;;;4957910;28;20038;-74
2023/03/29 12:34:13;;;;;;;7.53;3.42;;;;;;;;;;4967259;28;20057;-74
2023/03/29 12:37:05;;;;;;;9.80;3.80;;;;;;;;;;4987618;28;20038;-76
2023/03/29 12:39:32;;;;;;;5.70;3.72;;;;;;;;;;5003380;28;20110;-77
2023/03/29 12:42:13;;;;;;;8.15;3.53;;;;;;;;;;4987390;28;20057;-74
2023/03/29 12:44:48;;;;;;;8.07;3.85;;;;;;;;;;4982688;28;20124;-75
2023/03/29 12:47:47;;;;;;;7.50;3.85;;;;;;;;;;4985016;28;20034;-75
2023/03/29 12:50:31;;;;;;;11.55;3.70;;;;;;;;;;4983669;28;20097;-75
2023/03/29 12:53:20;;;;;;;6.10;3.15;;;;;;;;;;4985371;28;20163;-75
2023/03/29 12:56:07;;;;;;;14.98;3.80;;;;;;;;;;4983541;28;20562;-75
2023/03/29 12:58:53;;;;;;;7.47;3.53;;;;;;;;;;4986270;28;20070;-73
2023/03/29 13:01:40;;;;;;;10.07;3.88;;;;;;;;;;4993641;28;20037;-76
2023/03/29 13:04:17;;;;;;;6.85;3.80;;;;;;;;;;4985645;28;20037;-74
2023/03/29 13:06:45;;;;;;;13.95;7.32;;;;;;;;;;4987826;28;20132;-75
2023/03/29 13:09:28;;;;;;;6.57;3.63;;;;;;;;;;4987779;28;20033;-75
2023/03/29 13:11:54;;;;;;;7.00;3.55;;;;;;;;;;4983325;28;20026;-75
2023/03/29 13:14:28;;;;;;;5.57;3.55;;;;;;;;;;4985240;28;20486;-76
2023/03/29 13:17:01;;;;;;;12.98;4.18;;;;;;;;;;4982216;28;20720;-76
2023/03/29 13:19:32;;;;;;;9.43;3.88;;;;;;;;;;4986372;28;20054;-76
2023/03/29 13:22:17;;;;;;;5.95;3.85;;;;;;;;;;4985920;28;20454;-75
2023/03/29 13:25:24;;;;;;;6.47;3.35;;;;;;;;;;4985901;28;20502;-74
2023/03/29 13:27:59;;;;;;;5.13;3.40;;;;;;;;;;4983830;28;20049;-76
2023/03/29 13:30:29;;;;;;;5.18;3.63;;;;;;;;;;4984706;28;20034;-76
2023/03/29 13:33:04;;;;;;;18.10;4.53;;;;;;;;;;4986391;28;20065;-75
2023/03/29 13:36:03;;;;;;;5.97;3.90;;;;;;;;;;4986401;28;20029;-75
2023/03/29 13:38:34;;;;;;;7.43;4.30;;;;;;;;;;4983391;28;20018;-76
2023/03/29 13:41:19;;;;;;;5.45;3.30;;;;;;;;;;4987590;28;20092;-75
2023/03/29 13:43:45;;;;;;;8.00;4.15;;;;;;;;;;4983882;28;20026;-76
2023/03/29 13:46:36;;;;;;;5.32;3.45;;;;;;;;;;4983223;28;20029;-76
2023/03/29 13:49:10;;;;;;;6.63;3.30;;;;;;;;;;4986372;28;20052;-75
2023/03/29 13:51:39;;;;;;;5.65;4.10;;;;;;;;;;4985901;28;20490;-75
2023/03/29 13:54:33;;;;;;;7.40;3.65;;;;;;;;;;4982761;28;20053;-75
2023/03/29 13:57:14;;;;;;;5.82;3.63;;;;;;;;;;4977562;28;20073;-76
2023/03/29 14:00:00;;;;;;;13.25;4.55;;;;;;;;;;4987075;28;20026;-76
2023/03/29 14:02:37;;;;;;;4.05;2.90;;;;;;;;;;4976171;28;20038;-75
2023/03/29 14:05:05;;;;;;;6.57;3.47;;;;;;;;;;4983139;28;20491;-75
2023/03/29 14:07:36;;;;;;;11.80;2.88;;;;;;;;;;4985094;28;20715;-75
2023/03/29 14:10:02;;;;;;;11.50;4.20;;;;;;;;;;4978994;28;20033;-74
2023/03/29 14:12:36;;;;;;;10.57;3.72;;;;;;;;;;4987610;28;20022;-76
2023/03/29 14:15:04;;;;;;;8.68;3.50;;;;;;;;;;4987253;28;20108;-74
2023/03/29 14:17:31;;;;;;;9.38;4.80;;;;;;;;;;4987683;28;20113;-76
2023/03/29 14:19:59;;;;;;;11.93;3.88;;;;;;;;;;5003965;28;20388;-75
2023/03/29 14:22:31;;;;;;;207.25;21.55;;;;;;;;;;4971471;28;20588;-74
2023/03/29 14:25:04;;;;;;;7.88;3.38;;;;;;;;;;5003457;28;20037;-74
2023/03/29 14:27:31;;;;;;;8.70;3.47;;;;;;;;;;4969800;28;20097;-76
2023/03/29 14:29:57;;;;;;;4.28;3.88;;;;;;;;;;4986507;28;20528;-74
2023/03/29 14:32:30;;;;;;;9.95;3.88;;;;;;;;;;4986136;28;20042;-76
2023/03/29 14:34:56;;;;;;;10.18;3.83;;;;;;;;;;4987065;28;20125;-75
2023/03/29 14:37:29;;;;;;;7.55;4.03;;;;;;;;;;4989007;28;20456;-76
2023/03/29 14:39:55;;;;;;;5.55;3.35;;;;;;;;;;4989299;28;20427;-74
2023/03/29 14:42:26;;;;;;;11.88;3.70;;;;;;;;;;4988332;28;20026;-75
2023/03/29 14:45:01;;;;;;;6.70;3.60;;;;;;;;;;4986116;28;20087;-75
2023/03/29 14:47:30;;;;;;;16.35;4.40;;;;;;;;;;4977234;28;20030;-77
2023/03/29 14:49:59;;;;;;;5.82;3.50;;;;;;;;;;4985400;28;20066;-75
2023/03/29 14:52:29;;;;;;;8.75;3.92;;;;;;;;;;4989779;28;20121;-74
2023/03/29 14:54:58;;;;;;;11.50;3.72;;;;;;;;;;4993786;28;20112;-75
2023/03/29 14:57:33;;;;;;;7.80;3.65;;;;;;;;;;4992371;28;20057;-74
2023/03/29 15:00:20;;;;;;;8.88;3.60;;;;;;;;;;4992408;28;20099;-74
2023/03/29 15:02:59;;;;;;;9.60;3.90;;;;;;;;;;4993954;28;20027;-74
2023/03/29 15:05:32;;;;;;;6.00;4.20;;;;;;;;;;4991821;28;20034;-74
2023/03/29 15:08:00;;;;;;;14.65;6.28;;;;;;;;;;4992912;28;20022;-74